createdAt,value
2019-02-27T00:00:00.857Z,0
2019-02-27T00:05:00.822Z,0
2019-02-27T00:10:00.820Z,0
2019-02-27T00:15:02.201Z,0
2019-02-27T00:20:04.064Z,0
2019-02-27T00:25:03.450Z,0
2019-02-27T00:30:04.552Z,0
2019-02-27T00:35:01.308Z,0
2019-02-27T00:40:05.376Z,0
2019-02-27T00:45:00.867Z,0
2019-02-27T00:50:05.801Z,0
2019-02-27T00:55:04.249Z,0
2019-02-27T01:00:00.748Z,0
2019-02-27T01:05:01.228Z,0
2019-02-27T01:10:01.292Z,0
2019-02-27T01:15:01.642Z,0
2019-02-27T01:20:00.916Z,0
2019-02-27T01:25:01.099Z,0
2019-02-27T01:30:01.515Z,0
2019-02-27T01:35:01.170Z,0
2019-02-27T01:40:01.047Z,0
2019-02-27T01:45:01.501Z,0
2019-02-27T01:50:47.928Z,0
2019-02-27T01:55:00.833Z,0
2019-02-27T02:00:00.781Z,0
2019-02-27T02:05:01.314Z,0
2019-02-27T02:10:00.607Z,0
2019-02-27T02:15:00.729Z,0
2019-02-27T02:20:00.957Z,0
2019-02-27T02:25:00.687Z,0
2019-02-27T02:30:00.841Z,0
2019-02-27T02:35:01.085Z,0
2019-02-27T02:40:00.721Z,0
2019-02-27T02:45:00.970Z,0
2019-02-27T02:50:00.923Z,0
2019-02-27T02:55:00.754Z,0
2019-02-27T03:00:43.360Z,0
2019-02-27T03:05:00.665Z,0
2019-02-27T03:10:06.874Z,0
2019-02-27T03:15:01.793Z,0
2019-02-27T03:20:02.831Z,0
2019-02-27T03:25:04.045Z,0
2019-02-27T03:30:04.561Z,0
2019-02-27T03:35:02.093Z,0
2019-02-27T03:40:02.112Z,0
2019-02-27T03:45:10.016Z,0
2019-02-27T03:50:03.092Z,0
2019-02-27T03:55:01.175Z,0
2019-02-27T04:00:00.789Z,0
2019-02-27T04:05:05.389Z,0
2019-02-27T04:10:01.840Z,0
2019-02-27T04:15:00.820Z,0
2019-02-27T04:20:01.169Z,0
2019-02-27T04:25:00.556Z,0
2019-02-27T04:30:00.945Z,0
2019-02-27T04:35:01.096Z,0
2019-02-27T04:40:00.799Z,0
2019-02-27T04:45:03.203Z,0
2019-02-27T04:50:01.324Z,0
2019-02-27T04:55:02.398Z,0
2019-02-27T05:00:01.023Z,0
2019-02-27T05:05:00.738Z,0
2019-02-27T05:10:01.179Z,0
2019-02-27T05:15:04.259Z,0
2019-02-27T05:20:01.096Z,0
2019-02-27T05:25:00.803Z,0
2019-02-27T05:30:01.494Z,0
2019-02-27T05:35:02.063Z,0
2019-02-27T05:40:00.744Z,0
2019-02-27T05:45:00.407Z,0
2019-02-27T05:50:01.527Z,0
2019-02-27T05:55:00.845Z,0
2019-02-27T06:00:02.729Z,0
2019-02-27T06:05:03.381Z,0
2019-02-27T06:10:02.810Z,0
2019-02-27T06:15:04.077Z,0
2019-02-27T06:20:01.284Z,0
2019-02-27T06:25:02.168Z,0
2019-02-27T06:30:01.017Z,0.8
2019-02-27T06:35:00.541Z,1.7
2019-02-27T06:40:00.601Z,2.5
2019-02-27T06:45:01.300Z,3.3
2019-02-27T06:50:00.701Z,4.2
2019-02-27T06:55:00.414Z,5.8
2019-02-27T07:00:03.002Z,6.7
2019-02-27T07:05:00.532Z,7.5
2019-02-27T07:10:00.600Z,9.2
2019-02-27T07:15:01.878Z,10
2019-02-27T07:20:00.599Z,10.8
2019-02-27T07:25:01.116Z,12.5
2019-02-27T07:30:01.331Z,13.3
2019-02-27T07:35:01.135Z,15
2019-02-27T07:40:01.106Z,15.8
2019-02-27T07:45:05.156Z,17.5
2019-02-27T07:50:02.714Z,19.2
2019-02-27T07:55:01.592Z,24.2
2019-02-27T08:00:02.567Z,22.5
2019-02-27T08:05:01.048Z,23.3
2019-02-27T08:10:04.639Z,25
2019-02-27T08:15:01.996Z,28.3
2019-02-27T08:20:01.436Z,29.2
2019-02-27T08:25:01.988Z,30
2019-02-27T08:30:01.450Z,31.7
2019-02-27T08:35:01.307Z,32.5
2019-02-27T08:40:00.563Z,34.2
2019-02-27T08:45:01.277Z,36.7
2019-02-27T08:50:02.332Z,48.3
2019-02-27T08:55:05.378Z,57.5
2019-02-27T09:00:02.084Z,45
2019-02-27T09:05:04.276Z,44.2
2019-02-27T09:10:02.710Z,48.3
2019-02-27T09:15:03.549Z,43.3
2019-02-27T09:45:14.974Z,38.3
2019-02-27T09:50:04.953Z,38.3
2019-02-27T09:55:05.777Z,39.2
2019-02-27T10:00:04.919Z,39.2
2019-02-27T10:05:04.434Z,39.2
2019-02-27T10:10:04.633Z,40
2019-02-27T10:15:04.779Z,40
2019-02-27T10:20:04.606Z,40.8
2019-02-27T10:25:04.277Z,40.8
2019-02-27T10:30:11.330Z,41.7
2019-02-27T10:35:04.304Z,41.7
2019-02-27T10:40:04.279Z,42.5
2019-02-27T10:45:04.560Z,42.5
2019-02-27T10:50:04.444Z,42.5
2019-02-27T10:55:04.338Z,43.3
2019-02-27T11:00:04.499Z,43.3
2019-02-27T11:05:04.526Z,44.2
2019-02-27T11:10:04.239Z,45.8
2019-02-27T11:15:04.322Z,48.3
2019-02-27T11:20:04.414Z,49.2
2019-02-27T11:25:04.629Z,51.7
2019-02-27T11:30:04.400Z,53.3
2019-02-27T11:35:04.466Z,54.2
2019-02-27T11:40:05.324Z,55.8
2019-02-27T11:45:04.372Z,61.7
2019-02-27T11:50:04.345Z,74.2
2019-02-27T11:55:04.141Z,82.5
2019-02-27T12:00:04.459Z,94.2
2019-02-27T12:05:04.179Z,102.5
2019-02-27T12:10:06.666Z,115
2019-02-27T12:15:06.765Z,123.3
2019-02-27T12:20:04.827Z,125.8
2019-02-27T12:25:04.969Z,149.2
2019-02-27T12:30:05.337Z,160
2019-02-27T12:35:04.482Z,160.8
2019-02-27T12:40:04.011Z,172.5
2019-02-27T12:45:04.401Z,186.7
2019-02-27T13:05:12.503Z,233.3
2019-02-27T13:10:04.388Z,220.8
2019-02-27T13:15:07.387Z,223.3
2019-02-27T13:20:04.807Z,246.7
2019-02-27T13:25:04.758Z,165.8
2019-02-27T13:30:08.595Z,45.8
2019-02-27T13:35:04.364Z,42.5
2019-02-27T13:40:05.335Z,41.7
2019-02-27T13:45:04.257Z,40
2019-02-27T13:50:04.463Z,39.2
2019-02-27T13:55:04.448Z,40
2019-02-27T14:00:04.892Z,40.8
2019-02-27T14:05:04.760Z,40
2019-02-27T14:10:04.436Z,40
2019-02-27T14:15:04.518Z,40
2019-02-27T14:20:05.360Z,40
2019-02-27T14:25:04.662Z,39.2
2019-02-27T14:30:04.510Z,38.3
2019-02-27T14:35:04.439Z,40
2019-02-27T14:40:05.361Z,40
2019-02-27T14:45:05.987Z,59.2
2019-02-27T14:50:04.397Z,39.2
2019-02-27T14:55:04.461Z,38.3
2019-02-27T15:00:05.887Z,40.8
2019-02-27T15:05:08.334Z,39.2
2019-02-27T15:10:07.266Z,35.8
2019-02-27T15:15:06.875Z,36.7
2019-02-27T15:40:28.529Z,30
2019-02-27T15:45:09.188Z,29.2
2019-02-27T15:50:05.169Z,28.3
2019-02-27T15:55:05.914Z,29.2
2019-02-27T16:00:06.403Z,42.5
2019-02-27T16:05:04.922Z,23.3
2019-02-27T16:10:07.943Z,21.7
2019-02-27T16:15:05.052Z,20
2019-02-27T16:20:05.054Z,18.3
2019-02-27T16:25:04.781Z,16.7
2019-02-27T16:30:04.813Z,15
2019-02-27T16:35:07.824Z,13.3
2019-02-27T16:40:04.687Z,11.7
2019-02-27T16:45:04.499Z,10
2019-02-27T16:50:04.510Z,8.3
2019-02-27T16:55:04.571Z,6.7
2019-02-27T17:00:04.606Z,5
2019-02-27T17:05:05.720Z,4.2
2019-02-27T17:10:04.663Z,2.5
2019-02-27T17:15:04.394Z,1.7
2019-02-27T17:20:04.689Z,0.8
2019-02-27T17:25:04.712Z,0
2019-02-27T17:30:04.750Z,0
2019-02-27T17:35:04.599Z,0
2019-02-27T17:40:04.487Z,0
2019-02-27T17:45:04.569Z,0
2019-02-27T17:50:04.649Z,0
2019-02-27T17:55:06.879Z,0
2019-02-27T18:00:04.461Z,0
2019-02-27T18:05:04.385Z,0
2019-02-27T18:10:04.880Z,0
2019-02-27T18:15:04.783Z,0
2019-02-27T18:20:04.620Z,0
2019-02-27T18:25:04.792Z,0
2019-02-27T18:30:06.320Z,0
2019-02-27T18:35:04.313Z,0
2019-02-27T18:40:04.303Z,0
2019-02-27T18:45:04.597Z,0
2019-02-27T18:50:04.476Z,0
2019-02-27T18:55:04.644Z,0
2019-02-27T19:00:04.664Z,0
2019-02-27T19:05:06.642Z,0
2019-02-27T19:10:06.782Z,0
2019-02-27T19:15:04.443Z,0
2019-02-27T19:20:04.374Z,0
2019-02-27T19:25:04.401Z,0
2019-02-27T19:30:07.125Z,0
2019-02-27T19:35:04.268Z,0
2019-02-27T19:40:04.195Z,0
2019-02-27T19:45:05.129Z,0
2019-02-27T19:50:04.237Z,0
2019-02-27T19:55:04.426Z,0
2019-02-27T20:00:04.204Z,0
2019-02-27T20:05:04.431Z,0
2019-02-27T20:10:04.122Z,0
2019-02-27T20:15:04.086Z,0
2019-02-27T20:20:05.201Z,0
2019-02-27T20:25:06.545Z,0
2019-02-27T20:30:04.298Z,0
2019-02-27T20:35:04.971Z,0
2019-02-27T20:40:04.265Z,0
2019-02-27T20:45:04.182Z,0
2019-02-27T20:50:04.039Z,0
2019-02-27T20:55:03.999Z,0
2019-02-27T21:00:04.323Z,0
2019-02-27T21:05:06.692Z,0
2019-02-27T21:10:04.171Z,0
2019-02-27T21:15:03.991Z,0
2019-02-27T21:20:04.178Z,0
2019-02-27T21:25:04.061Z,0
2019-02-27T21:30:04.128Z,0
2019-02-27T21:35:04.157Z,0
2019-02-27T21:40:04.290Z,0
2019-02-27T21:45:04.622Z,0
2019-02-27T21:50:07.107Z,0
2019-02-27T21:55:04.554Z,0
2019-02-27T22:01:04.902Z,0
2019-02-27T22:20:16.436Z,0
2019-02-27T22:25:05.459Z,0
2019-02-27T22:30:05.248Z,0
2019-02-27T22:35:05.509Z,0
2019-02-27T22:40:07.345Z,0
2019-02-27T22:45:05.616Z,0
2019-02-27T22:50:06.938Z,0
2019-02-27T23:10:15.775Z,0
2019-02-27T23:15:05.417Z,0
2019-02-27T23:20:05.687Z,0
2019-02-27T23:25:05.687Z,0
2019-02-27T23:30:05.454Z,0
2019-02-27T23:35:05.234Z,0
2019-02-27T23:40:04.983Z,0
2019-02-27T23:45:05.122Z,0
2019-02-27T23:50:05.256Z,0
2019-02-27T23:55:07.205Z,0
